Airport View

Enter AWOS ICAO identifier for current METAR.

ex. KFNL

PFNO 191956Z AUTO 19006KT 9SM 23/10 A3007 RMK AO2 SLPNO T02280100 $

19 Jun 2019 19:59

Frequency: 120.00

Phone: 907-636-2010

Other Area AWOS: PAIK - PASK - PAOT - PABL

TAF PAOT 191740Z 1918/2018 03006KT P6SM SCT050 FM192100 27006KT P6SM SCT050 FM200800 33005KT P6SM FEW050 FEW100